Time;durP1;ratioP1;P1;durP2;ratioP2;P2;SDS_P1;SDS_P2;PMS_P1;PMS_P2;Temp;Humidity;BMP_temperature;BMP_pressure;BME280_temperature;BME280_humidity;BME280_pressure;Samples;Min_cycle;Max_cycle;Signal;HPM_P1;HPM_P2
2022/10/09 00:00:39;;;;;;;1999.90;999.90;;;8.60;99.90;;;;;;4973759;28;20433;-71
2022/10/09 00:03:04;;;;;;;1999.90;999.90;;;8.60;99.90;;;;;;4973851;28;20450;-71
2022/10/09 00:05:30;;;;;;;1999.90;999.90;;;8.60;99.90;;;;;;4973781;28;20412;-71
2022/10/09 00:07:56;;;;;;;1999.90;999.90;;;8.50;99.90;;;;;;4973517;28;20301;-71
2022/10/09 00:10:21;;;;;;;1999.90;999.90;;;8.50;99.90;;;;;;4973642;28;20572;-71
2022/10/09 00:12:48;;;;;;;1999.90;999.90;;;8.50;99.90;;;;;;4973589;28;20514;-71
2022/10/09 00:15:13;;;;;;;1999.90;999.90;;;8.40;99.90;;;;;;4973697;28;20676;-72
2022/10/09 00:17:39;;;;;;;1999.90;999.90;;;8.40;99.90;;;;;;4973460;28;20418;-72
2022/10/09 00:20:06;;;;;;;1999.90;999.90;;;8.30;99.90;;;;;;4973352;28;20720;-72
2022/10/09 00:22:31;;;;;;;1999.90;999.90;;;8.20;99.90;;;;;;4973685;28;20883;-70
2022/10/09 00:24:57;;;;;;;1999.90;999.90;;;8.10;99.90;;;;;;4981071;28;20434;-70
2022/10/09 00:27:23;;;;;;;1999.90;999.90;;;8.10;99.90;;;;;;4980626;28;20195;-70
2022/10/09 00:29:49;;;;;;;1999.90;999.90;;;8.00;99.90;;;;;;4980719;28;20213;-70
2022/10/09 00:32:15;;;;;;;1999.90;999.90;;;8.00;99.90;;;;;;5055102;23;20486;-68
2022/10/09 00:34:41;;;;;;;1999.90;999.90;;;8.00;99.90;;;;;;5032108;28;20456;-69
2022/10/09 00:37:07;;;;;;;1999.90;999.90;;;7.90;99.90;;;;;;5031334;28;20797;-68
2022/10/09 00:39:33;;;;;;;1999.90;999.90;;;7.90;99.90;;;;;;5030807;28;20224;-68
2022/10/09 00:41:59;;;;;;;1999.90;999.90;;;7.90;99.90;;;;;;5031990;28;20196;-68
2022/10/09 00:44:59;;;;;;;1999.90;999.90;;;7.80;99.90;;;;;;5032108;28;20164;-68
2022/10/09 00:47:43;;;;;;;1999.90;999.90;;;7.70;99.90;;;;;;5032451;28;20401;-69
2022/10/09 00:50:22;;;;;;;1999.90;999.90;;;7.60;99.90;;;;;;5045311;28;20396;-69
2022/10/09 00:52:54;;;;;;;1999.90;999.90;;;7.60;99.90;;;;;;5034678;28;20403;-68
2022/10/09 00:55:21;;;;;;;1999.90;999.90;;;7.70;99.90;;;;;;5031917;28;20436;-69
2022/10/09 00:57:47;;;;;;;1999.90;999.90;;;7.70;99.90;;;;;;5030336;28;20411;-69
2022/10/09 01:00:13;;;;;;;1999.90;999.90;;;7.70;99.90;;;;;;5031772;28;20455;-69
2022/10/09 01:02:39;;;;;;;1999.90;999.90;;;7.80;99.90;;;;;;5031726;28;20186;-69
2022/10/09 01:05:07;;;;;;;1999.90;999.90;;;7.80;99.90;;;;;;5031784;28;20456;-69
2022/10/09 01:07:47;;;;;;;1999.90;999.90;;;7.80;99.90;;;;;;5031647;28;20160;-69
2022/10/09 01:10:23;;;;;;;1999.90;999.90;;;7.70;99.90;;;;;;5031872;28;20395;-69
2022/10/09 01:13:10;;;;;;;1999.90;999.90;;;7.70;99.90;;;;;;5031916;28;20511;-69
2022/10/09 01:15:45;;;;;;;1999.90;999.90;;;7.70;99.90;;;;;;5031701;28;20404;-69
2022/10/09 01:18:36;;;;;;;1999.90;999.90;;;7.70;99.90;;;;;;5031521;28;20396;-68
2022/10/09 01:21:05;;;;;;;1999.90;999.90;;;7.70;99.90;;;;;;5031685;28;20414;-69
2022/10/09 01:23:46;;;;;;;1999.90;999.90;;;7.60;99.90;;;;;;5031712;28;20450;-69
2022/10/09 01:26:23;;;;;;;1999.90;999.90;;;7.50;99.90;;;;;;5031441;28;20410;-68
2022/10/09 01:28:53;;;;;;;1999.90;999.90;;;7.50;99.90;;;;;;5031265;28;20771;-68
2022/10/09 01:31:21;;;;;;;1999.90;999.90;;;7.50;99.90;;;;;;5031078;28;20443;-69
2022/10/09 01:33:48;;;;;;;1999.90;999.90;;;7.50;99.90;;;;;;5030676;28;20423;-69
2022/10/09 01:36:16;;;;;;;1999.90;999.90;;;7.50;99.90;;;;;;5030604;28;20502;-69
2022/10/09 01:38:43;;;;;;;1999.90;999.90;;;7.40;99.90;;;;;;5030731;28;20450;-68
2022/10/09 01:41:09;;;;;;;1999.90;999.90;;;7.40;99.90;;;;;;5035673;28;20941;-69
2022/10/09 01:43:35;;;;;;;1999.90;999.90;;;7.50;99.90;;;;;;5030563;28;20494;-69
2022/10/09 01:46:22;;;;;;;1999.90;999.90;;;7.50;99.90;;;;;;5030509;28;20172;-69
2022/10/09 01:48:56;;;;;;;1999.90;999.90;;;7.50;99.90;;;;;;5035064;28;20177;-69
2022/10/09 01:51:26;;;;;;;1999.90;999.90;;;7.40;99.90;;;;;;5036778;28;20422;-69
2022/10/09 01:53:56;;;;;;;1999.90;999.90;;;7.40;99.90;;;;;;5038211;28;20407;-68
2022/10/09 01:56:25;;;;;;;1999.90;999.90;;;7.30;99.90;;;;;;5043221;28;20408;-69
2022/10/09 01:58:56;;;;;;;1999.90;999.90;;;7.40;99.90;;;;;;5039059;28;20450;-69
2022/10/09 02:01:34;;;;;;;1999.90;999.90;;;7.40;99.90;;;;;;5040092;28;20423;-68
2022/10/09 02:04:03;;;;;;;1999.90;999.90;;;7.30;99.90;;;;;;5040677;28;20415;-69
2022/10/09 02:06:30;;;;;;;1999.90;999.90;;;7.30;99.90;;;;;;5039301;28;20804;-69
2022/10/09 02:08:56;;;;;;;1999.90;999.90;;;7.20;99.90;;;;;;5036669;28;20489;-68
2022/10/09 02:11:26;;;;;;;1999.90;999.90;;;7.20;99.90;;;;;;5033525;28;20467;-69
2022/10/09 02:13:54;;;;;;;1999.90;999.90;;;7.20;99.90;;;;;;5033503;28;20462;-69
2022/10/09 02:16:45;;;;;;;1999.90;999.90;;;7.20;99.90;;;;;;5033451;28;20411;-69
2022/10/09 02:19:25;;;;;;;1999.90;999.90;;;7.20;99.90;;;;;;5033398;28;20451;-69
2022/10/09 02:22:09;;;;;;;1999.90;999.90;;;7.20;99.90;;;;;;5033420;28;20434;-68
2022/10/09 02:24:36;;;;;;;1999.90;999.90;;;7.10;99.90;;;;;;5039895;28;20430;-69
2022/10/09 02:27:02;;;;;;;1999.90;999.90;;;7.10;99.90;;;;;;5033001;28;20442;-68
2022/10/09 02:29:28;;;;;;;1999.90;999.90;;;7.10;99.90;;;;;;5033369;28;20777;-68
2022/10/09 02:31:54;;;;;;;1999.90;999.90;;;7.00;99.90;;;;;;4994857;28;1123301;-68
2022/10/09 02:34:20;;;;;;;1999.90;999.90;;;6.90;99.90;;;;;;5034379;28;20207;-69
2022/10/09 02:36:47;;;;;;;1999.90;999.90;;;6.90;99.90;;;;;;5033695;28;20184;-69
2022/10/09 02:39:13;;;;;;;1999.90;999.90;;;7.00;99.90;;;;;;5037196;28;20469;-69
2022/10/09 02:41:39;;;;;;;1999.90;999.90;;;6.90;99.90;;;;;;5039818;28;20431;-68
2022/10/09 02:44:05;;;;;;;1999.90;999.90;;;6.90;99.90;;;;;;5034956;28;20295;-69
2022/10/09 02:46:32;;;;;;;1999.90;999.90;;;6.90;99.90;;;;;;5041700;28;20177;-68
2022/10/09 02:48:58;;;;;;;1999.90;999.90;;;6.90;99.90;;;;;;5042005;28;20407;-69
2022/10/09 02:51:24;;;;;;;1999.90;999.90;;;6.90;99.90;;;;;;5042198;28;20986;-69
2022/10/09 02:53:54;;;;;;;1999.90;999.90;;;6.90;99.90;;;;;;5034919;28;20645;-69
2022/10/09 02:56:21;;;;;;;1999.90;999.90;;;6.90;99.90;;;;;;5033701;28;20412;-68
2022/10/09 02:58:47;;;;;;;1999.90;999.90;;;6.80;99.90;;;;;;5037270;28;20455;-69
2022/10/09 03:01:13;;;;;;;1999.90;999.90;;;6.80;99.90;;;;;;5039165;28;20473;-68
2022/10/09 03:03:38;;;;;;;1999.90;999.90;;;6.80;99.90;;;;;;5033760;28;20182;-68
2022/10/09 03:06:08;;;;;;;1999.90;999.90;;;6.80;99.90;;;;;;5033620;28;20399;-68
2022/10/09 03:08:34;;;;;;;1999.90;999.90;;;6.80;99.90;;;;;;5033697;28;20657;-68
2022/10/09 03:11:00;;;;;;;1999.90;999.90;;;6.70;99.90;;;;;;5033564;28;20508;-68
2022/10/09 03:13:26;;;;;;;1999.90;999.90;;;6.70;99.90;;;;;;5037847;28;20439;-68
2022/10/09 03:15:51;;;;;;;1999.90;999.90;;;6.80;99.90;;;;;;5037467;28;20172;-68
2022/10/09 03:18:17;;;;;;;1999.90;999.90;;;6.70;99.90;;;;;;5033280;28;20226;-68
2022/10/09 03:20:43;;;;;;;1999.90;999.90;;;6.70;99.90;;;;;;5039751;28;20242;-69
2022/10/09 03:23:08;;;;;;;1999.90;999.90;;;6.70;99.90;;;;;;5038067;28;20473;-69
2022/10/09 03:25:34;;;;;;;1999.90;999.90;;;6.70;99.90;;;;;;5033643;28;20211;-68
2022/10/09 03:28:00;;;;;;;1999.90;999.90;;;6.60;99.90;;;;;;5032657;28;20540;-68
2022/10/09 03:30:25;;;;;;;1999.90;999.90;;;6.60;99.90;;;;;;5033203;28;20172;-69
2022/10/09 03:32:51;;;;;;;1999.90;999.90;;;6.60;99.90;;;;;;5033193;28;20599;-69
2022/10/09 03:35:16;;;;;;;1999.90;999.90;;;6.60;99.90;;;;;;5033179;28;20603;-69
2022/10/09 03:37:42;;;;;;;1999.90;999.90;;;6.50;99.90;;;;;;5032424;28;20177;-69
2022/10/09 03:40:08;;;;;;;1999.90;999.90;;;6.50;99.90;;;;;;5033007;28;20215;-68
2022/10/09 03:42:34;;;;;;;1999.90;999.90;;;6.50;99.90;;;;;;5032979;28;20191;-68
2022/10/09 03:45:03;;;;;;;1999.90;999.90;;;6.40;99.90;;;;;;5033005;28;20774;-69
2022/10/09 03:47:29;;;;;;;1999.90;999.90;;;6.40;99.90;;;;;;5033244;28;20171;-68
2022/10/09 03:49:55;;;;;;;1999.90;999.90;;;6.40;99.90;;;;;;5040141;28;20438;-69
2022/10/09 03:52:20;;;;;;;1999.90;999.90;;;6.40;99.90;;;;;;5040502;28;20936;-69
2022/10/09 03:54:46;;;;;;;1999.90;999.90;;;6.30;99.90;;;;;;5039852;28;20183;-69
2022/10/09 03:57:11;;;;;;;1999.90;999.90;;;6.30;99.90;;;;;;5032637;28;20169;-69
2022/10/09 03:59:37;;;;;;;1999.90;999.90;;;6.30;99.90;;;;;;5032567;28;20258;-68
2022/10/09 04:02:03;;;;;;;1999.90;999.90;;;6.20;99.90;;;;;;5032586;28;20223;-69
2022/10/09 04:04:28;;;;;;;1999.90;999.90;;;6.20;99.90;;;;;;5032727;28;20643;-69
2022/10/09 04:06:54;;;;;;;1999.90;999.90;;;6.10;99.90;;;;;;5034760;28;20174;-69
2022/10/09 04:09:19;;;;;;;1999.90;999.90;;;6.10;99.90;;;;;;5038492;28;20180;-68
2022/10/09 04:11:45;;;;;;;1999.90;999.90;;;6.20;99.90;;;;;;5035057;28;20227;-68
2022/10/09 04:14:10;;;;;;;1999.90;999.90;;;6.10;99.90;;;;;;5033031;28;20299;-68
2022/10/09 04:16:36;;;;;;;1999.90;999.90;;;6.10;99.90;;;;;;5032332;28;20187;-68
2022/10/09 04:19:02;;;;;;;1999.90;999.90;;;6.10;99.90;;;;;;5038955;28;20218;-69
2022/10/09 04:21:27;;;;;;;1999.90;999.90;;;6.10;99.90;;;;;;5036275;28;20196;-68
2022/10/09 04:23:53;;;;;;;1999.90;999.90;;;6.00;99.90;;;;;;5032345;28;20223;-68
2022/10/09 04:26:19;;;;;;;1999.90;999.90;;;6.00;99.90;;;;;;5033047;28;20169;-69
2022/10/09 04:28:44;;;;;;;1999.90;999.90;;;6.00;99.90;;;;;;5038479;28;20173;-69
2022/10/09 04:31:10;;;;;;;1999.90;999.90;;;6.00;99.90;;;;;;5033040;28;20212;-69
2022/10/09 04:33:35;;;;;;;1999.90;999.90;;;6.00;99.90;;;;;;5035486;28;20180;-67
2022/10/09 04:36:02;;;;;;;1999.90;999.90;;;6.00;99.90;;;;;;5033500;28;20229;-69
2022/10/09 04:38:29;;;;;;;1999.90;999.90;;;6.00;99.90;;;;;;5038343;28;20175;-69
2022/10/09 04:41:06;;;;;;;1999.90;999.90;;;6.00;99.90;;;;;;5033609;28;20947;-68
2022/10/09 04:43:32;;;;;;;1999.90;999.90;;;6.00;99.90;;;;;;5032215;28;20747;-68
2022/10/09 04:46:02;;;;;;;1999.90;999.90;;;5.90;99.90;;;;;;5031793;28;20856;-68
2022/10/09 04:48:27;;;;;;;1999.90;999.90;;;5.90;99.90;;;;;;5031558;28;20426;-68
2022/10/09 04:50:53;;;;;;;1999.90;999.90;;;5.90;99.90;;;;;;5037148;28;20828;-69
2022/10/09 04:53:18;;;;;;;1999.90;999.90;;;5.80;99.90;;;;;;5039835;28;20260;-69
2022/10/09 04:55:44;;;;;;;1999.90;999.90;;;5.70;99.90;;;;;;5038462;28;20178;-68
2022/10/09 04:58:11;;;;;;;1999.90;999.90;;;5.70;99.90;;;;;;5031675;28;20180;-69
2022/10/09 05:00:42;;;;;;;1999.90;999.90;;;5.80;99.90;;;;;;5038654;28;20423;-68
2022/10/09 05:03:07;;;;;;;1999.90;999.90;;;5.70;99.90;;;;;;5032560;28;20414;-68
2022/10/09 05:05:33;;;;;;;1999.90;999.90;;;5.80;99.90;;;;;;5032067;28;20478;-68
2022/10/09 05:07:59;;;;;;;1999.90;999.90;;;5.70;99.90;;;;;;5031575;28;20171;-69
2022/10/09 05:10:24;;;;;;;1999.90;999.90;;;5.80;99.90;;;;;;5031749;28;20250;-68
2022/10/09 05:12:50;;;;;;;1999.90;999.90;;;5.70;99.90;;;;;;5031842;28;20681;-68
2022/10/09 05:15:15;;;;;;;1999.90;999.90;;;5.70;99.90;;;;;;5031668;28;20322;-68
2022/10/09 05:17:41;;;;;;;1999.90;999.90;;;5.70;99.90;;;;;;5031471;28;20180;-69
2022/10/09 05:20:07;;;;;;;1999.90;999.90;;;5.70;99.90;;;;;;5031784;28;20231;-69
2022/10/09 05:22:32;;;;;;;1999.90;999.90;;;5.70;99.90;;;;;;5040286;28;20230;-69
2022/10/09 05:24:58;;;;;;;1999.90;999.90;;;5.70;99.90;;;;;;5041557;28;20407;-69
2022/10/09 05:27:23;;;;;;;1999.90;999.90;;;5.70;99.90;;;;;;5043286;28;20173;-68
2022/10/09 05:29:49;;;;;;;1999.90;999.90;;;5.70;99.90;;;;;;5038428;28;20199;-69
2022/10/09 05:32:15;;;;;;;1999.90;999.90;;;5.70;99.90;;;;;;5035298;28;20207;-68
2022/10/09 05:34:40;;;;;;;1999.90;999.90;;;5.70;99.90;;;;;;5035861;28;20228;-68
2022/10/09 05:37:06;;;;;;;1999.90;999.90;;;5.70;99.90;;;;;;5035998;28;20263;-68
2022/10/09 05:39:34;;;;;;;1999.90;999.90;;;5.70;99.90;;;;;;5035861;28;20203;-68
2022/10/09 05:42:00;;;;;;;1999.90;999.90;;;5.70;99.90;;;;;;5036255;28;20234;-68
2022/10/09 05:44:25;;;;;;;1999.90;999.90;;;5.70;99.90;;;;;;5035541;28;20913;-69
2022/10/09 05:46:51;;;;;;;1999.90;999.90;;;5.60;99.90;;;;;;5040331;28;20232;-68
2022/10/09 05:49:17;;;;;;;1999.90;999.90;;;5.60;99.90;;;;;;5043503;28;20502;-69
2022/10/09 05:51:42;;;;;;;1999.90;999.90;;;5.60;99.90;;;;;;5042760;28;20223;-69
2022/10/09 05:54:13;;;;;;;1999.90;999.90;;;5.70;99.90;;;;;;5039771;28;20175;-69
2022/10/09 05:56:39;;;;;;;1999.90;999.90;;;5.70;99.90;;;;;;5034784;28;20180;-69
2022/10/09 05:59:14;;;;;;;1999.90;999.90;;;5.70;99.90;;;;;;5034905;28;20505;-68
2022/10/09 06:01:45;;;;;;;1999.90;999.90;;;5.80;99.90;;;;;;5034979;28;20429;-68
2022/10/09 06:04:19;;;;;;;1999.90;999.90;;;5.70;99.90;;;;;;5034846;28;20408;-68
2022/10/09 06:06:47;;;;;;;1999.90;999.90;;;5.70;99.90;;;;;;5034736;28;20764;-68
2022/10/09 06:09:14;;;;;;;1999.90;999.90;;;5.70;99.90;;;;;;5034725;28;20442;-68
2022/10/09 06:11:40;;;;;;;1999.90;999.90;;;5.80;99.90;;;;;;5034739;28;20415;-68
2022/10/09 06:14:08;;;;;;;1999.90;999.90;;;5.80;99.90;;;;;;5034757;28;20908;-68
2022/10/09 06:16:38;;;;;;;1999.90;999.90;;;5.90;99.90;;;;;;5034447;28;20822;-68
2022/10/09 06:19:05;;;;;;;1999.90;999.90;;;5.90;99.90;;;;;;5034504;28;20435;-68
2022/10/09 06:21:31;;;;;;;1999.90;999.90;;;5.90;99.90;;;;;;5035295;28;20472;-68
2022/10/09 06:23:59;;;;;;;1999.90;999.90;;;6.00;99.90;;;;;;5036055;28;20427;-68
2022/10/09 06:26:29;;;;;;;1999.90;999.90;;;6.00;99.90;;;;;;5034680;28;20400;-68
2022/10/09 06:28:56;;;;;;;1999.90;999.90;;;6.10;99.90;;;;;;5039842;28;20403;-68
2022/10/09 06:31:24;;;;;;;1999.90;999.90;;;6.10;99.90;;;;;;5074708;23;20490;-70
2022/10/09 06:33:51;;;;;;;1999.90;999.90;;;6.10;99.90;;;;;;4973436;28;20426;-71
2022/10/09 06:36:25;;;;;;;1999.90;999.90;;;6.10;99.90;;;;;;4975188;28;20408;-71
2022/10/09 06:38:51;;;;;;;1999.90;999.90;;;6.10;99.90;;;;;;4974884;28;20456;-71
2022/10/09 06:41:23;;;;;;;1999.90;999.90;;;6.20;99.90;;;;;;4975361;28;20951;-71
2022/10/09 06:43:51;;;;;;;1999.90;999.90;;;6.30;99.90;;;;;;4976471;28;20437;-69
2022/10/09 06:46:18;;;;;;;1999.90;999.90;;;6.40;99.90;;;;;;4978844;28;20965;-70
2022/10/09 06:48:44;;;;;;;1999.90;999.90;;;6.40;99.90;;;;;;4977519;28;20430;-70
2022/10/09 06:51:12;;;;;;;1999.90;999.90;;;6.40;99.90;;;;;;4979561;28;20480;-70
2022/10/09 06:53:44;;;;;;;1999.90;999.90;;;6.50;99.90;;;;;;4980507;28;20201;-71
2022/10/09 06:56:11;;;;;;;1999.90;999.90;;;6.50;99.90;;;;;;4980625;28;20483;-70
2022/10/09 06:58:38;;;;;;;1999.90;999.90;;;6.60;99.90;;;;;;4979504;28;20457;-70
2022/10/09 07:01:06;;;;;;;1999.90;999.90;;;6.70;99.90;;;;;;4980682;28;20410;-72
2022/10/09 07:03:33;;;;;;;1999.90;999.90;;;6.80;99.90;;;;;;4978056;28;20502;-72
2022/10/09 07:06:26;;;;;;;1999.90;999.90;;;6.90;99.90;;;;;;4975445;28;20906;-73
2022/10/09 07:08:55;;;;;;;1999.90;999.90;;;6.90;99.90;;;;;;4972485;28;20428;-74
2022/10/09 07:11:24;;;;;;;1999.90;999.90;;;7.00;99.90;;;;;;4974845;28;20410;-71
2022/10/09 07:13:54;;;;;;;1999.90;999.90;;;7.10;99.90;;;;;;4974753;28;20504;-71
2022/10/09 07:16:28;;;;;;;1999.90;999.90;;;7.10;99.90;;;;;;4974669;28;20410;-71
2022/10/09 07:18:54;;;;;;;1999.90;999.90;;;7.20;99.90;;;;;;4975114;28;20471;-70
2022/10/09 07:21:20;;;;;;;1999.90;999.90;;;7.30;99.90;;;;;;4975101;28;20438;-70
2022/10/09 07:23:45;;;;;;;1999.90;999.90;;;7.30;99.90;;;;;;4975157;28;20402;-70
2022/10/09 07:26:14;;;;;;;1999.90;999.90;;;7.40;99.90;;;;;;4975020;28;20847;-70
2022/10/09 07:28:40;;;;;;;1999.90;999.90;;;7.60;99.90;;;;;;4974695;28;20266;-70
2022/10/09 07:31:06;;;;;;;1999.90;999.90;;;7.60;99.90;;;;;;4974995;28;20493;-70
2022/10/09 07:33:32;;;;;;;1999.90;999.90;;;7.70;99.90;;;;;;4974922;28;20935;-70
2022/10/09 07:36:00;;;;;;;1999.90;999.90;;;7.80;99.90;;;;;;4974567;28;20441;-70
2022/10/09 07:38:25;;;;;;;1999.90;999.90;;;7.90;99.90;;;;;;4974468;28;20172;-72
2022/10/09 07:40:52;;;;;;;1999.90;999.90;;;8.00;99.90;;;;;;4974702;28;20409;-72
2022/10/09 07:43:18;;;;;;;1999.90;999.90;;;8.10;99.90;;;;;;4974714;28;20652;-73
2022/10/09 07:45:44;;;;;;;1999.90;999.90;;;8.10;99.90;;;;;;4974289;28;20414;-70
2022/10/09 07:48:10;;;;;;;1999.90;999.90;;;8.20;99.90;;;;;;4977562;28;20402;-70
2022/10/09 07:50:35;;;;;;;1999.90;999.90;;;8.30;99.90;;;;;;4982237;28;20414;-70
2022/10/09 07:53:01;;;;;;;1999.90;999.90;;;8.40;99.90;;;;;;4977599;28;20204;-72
2022/10/09 07:55:27;;;;;;;1999.90;999.90;;;8.50;99.90;;;;;;4974030;28;20182;-72
2022/10/09 07:57:52;;;;;;;1999.90;999.90;;;8.60;99.90;;;;;;4973701;28;20178;-72
2022/10/09 08:00:18;;;;;;;1999.90;999.90;;;8.80;99.90;;;;;;4973816;28;20204;-72
2022/10/09 08:02:43;;;;;;;1999.90;999.90;;;8.80;99.90;;;;;;4973954;28;20610;-72
2022/10/09 08:05:09;;;;;;;1999.90;999.90;;;8.90;99.90;;;;;;4973860;28;20210;-72
2022/10/09 08:07:35;;;;;;;1999.90;999.90;;;8.90;99.90;;;;;;4973622;28;20197;-72
2022/10/09 08:10:01;;;;;;;1999.90;999.90;;;9.00;99.90;;;;;;4973794;28;20902;-72
2022/10/09 08:12:26;;;;;;;1999.90;999.90;;;9.10;99.90;;;;;;4973624;28;20487;-72
2022/10/09 08:14:52;;;;;;;1999.90;999.90;;;9.20;99.90;;;;;;4973760;28;20253;-72
2022/10/09 08:17:18;;;;;;;1999.90;999.90;;;9.30;99.90;;;;;;4973429;28;20906;-72
2022/10/09 08:19:43;;;;;;;1999.90;999.90;;;9.50;99.90;;;;;;4973527;28;20247;-72
2022/10/09 08:22:10;;;;;;;1999.90;999.90;;;9.60;99.90;;;;;;4976207;28;20241;-70
2022/10/09 08:24:36;;;;;;;1999.90;999.90;;;9.70;99.90;;;;;;4981500;28;20708;-71
2022/10/09 08:27:02;;;;;;;1999.90;999.90;;;9.80;99.90;;;;;;4982413;28;20413;-70
2022/10/09 08:29:27;;;;;;;1999.90;999.90;;;10.00;99.90;;;;;;4981957;28;20416;-70
2022/10/09 08:31:53;;;;;;;1999.90;999.90;;;10.10;99.90;;;;;;4980678;28;20267;-70
2022/10/09 08:34:19;;;;;;;1999.90;999.90;;;10.20;99.90;;;;;;4982393;28;20200;-71
2022/10/09 08:36:44;;;;;;;1999.90;999.90;;;10.30;99.90;;;;;;4982038;28;20219;-70
2022/10/09 08:39:10;;;;;;;1999.90;999.90;;;10.40;99.90;;;;;;4981697;28;20789;-70
2022/10/09 08:41:45;;;;;;;1999.90;999.90;;;10.60;99.90;;;;;;4980890;28;20260;-70
2022/10/09 08:44:19;;;;;;;1999.90;999.90;;;10.60;99.90;;;;;;4977201;28;20176;-71
2022/10/09 08:47:07;;;;;;;1999.90;999.90;;;10.70;99.90;;;;;;4978682;28;20420;-70
2022/10/09 08:49:47;;;;;;;1999.90;999.90;;;10.90;99.90;;;;;;4978950;28;20428;-71
2022/10/09 08:52:34;;;;;;;1999.90;999.90;;;11.00;99.90;;;;;;4978509;28;20433;-71
2022/10/09 08:55:13;;;;;;;1999.90;999.90;;;11.00;99.90;;;;;;4978951;28;20445;-71
2022/10/09 08:57:39;;;;;;;1999.90;999.90;;;11.20;99.90;;;;;;4977655;28;20905;-70
2022/10/09 09:00:19;;;;;;;1999.90;999.90;;;11.20;99.90;;;;;;4979147;28;20456;-70
2022/10/09 09:02:54;;;;;;;1999.90;999.90;;;11.40;99.90;;;;;;4979105;28;20201;-70
2022/10/09 09:05:43;;;;;;;1999.90;999.90;;;11.60;99.90;;;;;;4978671;28;20416;-70
2022/10/09 09:08:23;;;;;;;1999.90;999.90;;;11.60;99.90;;;;;;4978012;28;20480;-71
2022/10/09 09:11:05;;;;;;;1999.90;999.90;;;11.70;99.90;;;;;;4977373;28;20887;-71
2022/10/09 09:14:07;;;;;;;1999.90;999.90;;;11.80;99.90;;;;;;4976275;28;20523;-70
2022/10/09 09:16:38;;;;;;;1999.90;999.90;;;12.00;99.90;;;;;;4928711;28;20424;-69
2022/10/09 09:19:34;;;;;;;1999.90;999.90;;;12.00;99.90;;;;;;4978086;28;20445;-71
2022/10/09 09:22:00;;;;;;;1999.90;999.90;;;12.10;99.90;;;;;;4977663;28;20900;-71
2022/10/09 09:24:41;;;;;;;1999.90;999.90;;;12.20;99.90;;;;;;4974506;28;20469;-71
2022/10/09 09:27:13;;;;;;;1999.90;999.90;;;12.30;99.90;;;;;;4976411;28;20175;-71
2022/10/09 09:29:56;;;;;;;1999.90;999.90;;;12.40;99.90;;;;;;4976516;28;20413;-70
2022/10/09 09:32:25;;;;;;;1999.90;999.90;;;12.50;99.90;;;;;;4975659;28;20453;-70
2022/10/09 09:34:56;;;;;;;1999.90;999.90;;;12.70;99.90;;;;;;4976344;28;20443;-71
2022/10/09 09:37:22;;;;;;;1999.90;999.90;;;12.80;99.90;;;;;;4974431;28;20787;-71
2022/10/09 09:39:48;;;;;;;1999.90;999.90;;;12.90;99.90;;;;;;4974684;28;20458;-71
2022/10/09 09:42:19;;;;;;;1999.90;999.90;;;13.10;99.90;;;;;;4974946;28;20448;-71
2022/10/09 09:44:49;;;;;;;1999.90;999.90;;;13.20;99.90;;;;;;4977009;28;20168;-71
2022/10/09 09:47:25;;;;;;;1999.90;999.90;;;13.30;99.90;;;;;;4976025;28;20429;-71
2022/10/09 09:49:59;;;;;;;1999.90;999.90;;;13.50;99.90;;;;;;4976571;28;20411;-71
2022/10/09 09:52:28;;;;;;;1999.90;999.90;;;13.70;99.90;;;;;;4975829;28;20438;-71
2022/10/09 09:54:56;;;;;;;1999.90;999.90;;;13.80;99.90;;;;;;4972140;28;20420;-72
2022/10/09 09:57:29;;;;;;;1999.90;999.90;;;13.80;99.90;;;;;;4971929;28;20825;-71
2022/10/09 10:00:06;;;;;;;1999.90;999.90;;;14.00;99.90;;;;;;4972131;28;20472;-71
2022/10/09 10:02:31;;;;;;;1999.90;999.90;;;14.20;99.90;;;;;;4971888;28;20429;-72
2022/10/09 10:04:59;;;;;;;1999.90;999.90;;;14.30;99.90;;;;;;4972140;28;21296;-72
2022/10/09 10:07:33;;;;;;;1999.90;999.90;;;14.40;99.90;;;;;;4971794;28;20172;-72
2022/10/09 10:10:26;;;;;;;1999.90;999.90;;;14.60;99.90;;;;;;4975607;28;20429;-72
2022/10/09 10:12:51;;;;;;;1999.90;999.90;;;14.70;99.90;;;;;;4975282;28;20429;-72
2022/10/09 10:15:30;;;;;;;1999.90;999.90;;;14.80;99.90;;;;;;4975153;28;20424;-72
2022/10/09 10:18:16;;;;;;;1999.90;999.90;;;15.00;99.90;;;;;;4974963;28;20159;-71
2022/10/09 10:20:48;;;;;;;1999.90;999.90;;;15.10;99.90;;;;;;4975465;28;20450;-72
2022/10/09 10:23:34;;;;;;;1999.90;999.90;;;15.20;99.90;;;;;;4975044;28;20512;-72
2022/10/09 10:26:05;;;;;;;1999.90;999.90;;;15.30;99.90;;;;;;4975110;28;20413;-72
2022/10/09 10:28:41;;;;;;;1999.90;999.90;;;15.50;99.90;;;;;;4974954;28;20809;-71
2022/10/09 10:31:14;;;;;;;1999.90;999.90;;;15.60;99.90;;;;;;4974932;28;20408;-72
2022/10/09 10:33:42;;;;;;;1999.90;999.90;;;15.70;99.90;;;;;;4975305;28;20789;-72
2022/10/09 10:36:09;;;;;;;1999.90;999.90;;;15.80;99.90;;;;;;4975059;28;20481;-72
2022/10/09 10:38:41;;;;;;;1999.90;999.90;;;15.90;99.90;;;;;;4974070;28;20404;-72
2022/10/09 10:41:13;;;;;;;1999.90;999.90;;;15.90;99.90;;;;;;4975059;28;20414;-72
2022/10/09 10:44:03;;;;;;;1999.90;999.90;;;16.00;99.90;;;;;;4975062;28;20444;-72
2022/10/09 10:46:52;;;;;;;1999.90;999.90;;;16.10;99.90;;;;;;4943983;28;20418;-72
2022/10/09 10:49:20;;;;;;;1999.90;999.90;;;16.30;99.90;;;;;;4974793;28;20430;-72
2022/10/09 10:51:57;;;;;;;1999.90;999.90;;;16.40;99.90;;;;;;4975072;28;20442;-71
2022/10/09 10:54:37;;;;;;;1999.90;999.90;;;16.60;99.90;;;;;;4975239;28;20409;-71
2022/10/09 10:57:08;;;;;;;1999.90;999.90;;;16.70;99.90;;;;;;4974824;28;20422;-71
2022/10/09 10:59:48;;;;;;;1999.90;999.90;;;16.90;99.90;;;;;;4974464;28;20555;-71
2022/10/09 11:02:52;;;;;;;1999.90;999.90;;;17.00;99.90;;;;;;4975267;28;20436;-71
2022/10/09 11:05:41;;;;;;;1999.90;999.90;;;17.10;99.90;;;;;;4975070;28;20422;-71
2022/10/09 11:08:46;;;;;;;1999.90;999.90;;;17.20;99.90;;;;;;4974275;28;20420;-71
2022/10/09 11:11:36;;;;;;;1999.90;999.90;;;17.30;99.90;;;;;;4972175;28;20808;-71
2022/10/09 11:14:13;;;;;;;1999.90;999.90;;;17.50;99.90;;;;;;4973617;28;20971;-71
2022/10/09 11:16:47;;;;;;;1999.90;999.90;;;17.60;99.90;;;;;;4974667;28;20413;-71
2022/10/09 11:19:42;;;;;;;1999.90;999.90;;;17.70;99.90;;;;;;4973610;28;20464;-71
2022/10/09 11:22:29;;;;;;;1999.90;999.90;;;18.00;99.90;;;;;;4949552;28;20445;-70
2022/10/09 11:25:13;;;;;;;1999.90;999.90;;;18.60;99.90;;;;;;4975485;28;20402;-71
2022/10/09 11:27:49;;;;;;;1999.90;999.90;;;19.40;99.90;;;;;;4975562;28;20463;-71
2022/10/09 11:30:17;;;;;;;1999.90;999.90;;;20.30;99.90;;;;;;4976061;28;20505;-71
2022/10/09 11:33:00;;;;;;;1999.90;999.90;;;21.20;99.90;;;;;;4977163;28;20461;-71
2022/10/09 11:35:32;;;;;;;1999.90;999.90;;;22.20;94.90;;;;;;4976997;28;20436;-71
2022/10/09 11:38:02;;;;;;;1999.90;999.90;;;22.80;74.70;;;;;;4977471;28;20396;-70
2022/10/09 11:40:39;;;;;;;1999.90;999.90;;;23.40;61.40;;;;;;4976587;28;20465;-72
2022/10/09 11:43:16;;;;;;;1999.90;999.90;;;24.00;56.90;;;;;;4978277;28;20412;-71
2022/10/09 11:45:45;;;;;;;1999.90;999.90;;;24.40;46.60;;;;;;4977937;28;20494;-71
2022/10/09 11:48:17;;;;;;;1999.90;999.90;;;24.70;43.30;;;;;;4978210;28;20404;-72
2022/10/09 11:51:07;;;;;;;1999.90;999.90;;;24.80;29.20;;;;;;4979099;28;20421;-72
2022/10/09 11:53:35;;;;;;;1999.90;999.90;;;24.90;26.50;;;;;;4979089;28;20404;-72
2022/10/09 11:56:18;;;;;;;1999.90;999.90;;;25.00;24.10;;;;;;4979022;28;20493;-72
2022/10/09 11:59:01;;;;;;;1999.90;999.90;;;25.10;24.00;;;;;;4976863;28;20459;-72
2022/10/09 12:01:39;;;;;;;1999.90;999.90;;;24.90;19.10;;;;;;4977301;28;20428;-71
2022/10/09 12:04:24;;;;;;;1999.90;999.90;;;24.60;18.40;;;;;;4975356;28;20937;-72
2022/10/09 12:07:02;;;;;;;1999.90;999.90;;;24.40;19.40;;;;;;4975130;28;20839;-72
2022/10/09 12:09:30;;;;;;;1999.90;999.90;;;24.60;19.00;;;;;;4977014;28;20445;-71
2022/10/09 12:12:07;;;;;;;1999.90;999.90;;;24.70;16.30;;;;;;4976018;28;20776;-72
2022/10/09 12:14:35;;;;;;;1999.90;999.90;;;24.70;15.70;;;;;;4977389;28;20395;-72
2022/10/09 12:17:01;;;;;;;1999.90;999.90;;;24.80;16.80;;;;;;4977104;28;20451;-72
2022/10/09 12:19:36;;;;;;;1999.90;999.90;;;24.90;15.80;;;;;;4975326;28;20510;-72
2022/10/09 12:22:13;;;;;;;1999.90;999.90;;;25.10;16.20;;;;;;4974985;28;20547;-72